createdAt,value
2018-09-14T00:00:35.921Z,75.37
2018-09-14T00:03:12.228Z,75.20
2018-09-14T00:05:47.116Z,75.61
2018-09-14T00:08:21.932Z,76.04
2018-09-14T00:10:56.376Z,75.56
2018-09-14T00:13:31.013Z,74.38
2018-09-14T00:16:06.187Z,75.19
2018-09-14T00:18:40.954Z,75.33
2018-09-14T00:21:15.668Z,76.04
2018-09-14T00:23:50.061Z,76.14
2018-09-14T00:26:24.397Z,75.76
2018-09-14T00:28:59.447Z,76.45
2018-09-14T00:31:33.799Z,78.17
2018-09-14T00:34:08.193Z,78.19
2018-09-14T00:36:42.928Z,77.95
2018-09-14T00:39:17.708Z,78.15
2018-09-14T00:41:52.537Z,79.19
2018-09-14T00:44:27.105Z,79.12
2018-09-14T00:47:01.868Z,79.27
2018-09-14T00:49:36.140Z,78.91
2018-09-14T00:52:10.600Z,79.03
2018-09-14T00:54:45.682Z,79.96
2018-09-14T00:57:20.266Z,80.71
2018-09-14T00:59:54.616Z,80.30
2018-09-14T01:02:51.199Z,80.71
2018-09-14T01:05:26.388Z,81.25
2018-09-14T01:08:01.047Z,81.18
2018-09-14T01:10:35.636Z,80.84
2018-09-14T01:13:10.138Z,81.13
2018-09-14T01:15:44.952Z,81.88
2018-09-14T01:18:20.129Z,82.14
2018-09-14T01:20:55.252Z,82.82
2018-09-14T01:23:29.728Z,83.06
2018-09-14T01:26:04.445Z,82.35
2018-09-14T01:28:38.772Z,83.37
2018-09-14T01:31:13.231Z,84.54
2018-09-14T01:33:47.844Z,83.86
2018-09-14T01:36:22.212Z,83.70
2018-09-14T01:38:56.524Z,84.43
2018-09-14T01:41:30.995Z,84.23
2018-09-14T01:44:05.630Z,84.53
2018-09-14T01:46:40.759Z,85.30
2018-09-14T01:49:15.265Z,86.04
2018-09-14T01:51:49.867Z,85.75
2018-09-14T01:54:25.193Z,85.59
2018-09-14T01:56:59.620Z,86.17
2018-09-14T01:59:34.323Z,85.94
2018-09-14T02:02:09.036Z,85.84
2018-09-14T02:04:43.522Z,85.31
2018-09-14T02:07:17.859Z,85.23
2018-09-14T02:09:52.372Z,85.70
2018-09-14T02:12:26.966Z,84.89
2018-09-14T02:15:01.468Z,85.38
2018-09-14T02:17:35.828Z,84.64
2018-09-14T02:20:10.297Z,84.42
2018-09-14T02:22:45.025Z,85.77
2018-09-14T02:25:20.015Z,85.00
2018-09-14T02:27:54.459Z,84.80
2018-09-14T02:30:28.989Z,84.54
2018-09-14T02:33:03.878Z,85.00
2018-09-14T02:35:38.352Z,84.36
2018-09-14T02:38:12.737Z,85.15
2018-09-14T02:40:47.201Z,85.35
2018-09-14T02:43:21.697Z,85.57
2018-09-14T02:45:56.213Z,84.62
2018-09-14T02:48:30.637Z,84.52
2018-09-14T02:51:05.556Z,84.57
2018-09-14T02:53:40.141Z,84.92
2018-09-14T02:56:14.888Z,84.33
2018-09-14T02:58:49.658Z,84.13
2018-09-14T03:01:24.137Z,84.58
2018-09-14T03:03:58.788Z,85.79
2018-09-14T03:06:33.261Z,85.55
2018-09-14T03:09:08.385Z,83.98
2018-09-14T03:11:43.116Z,84.25
2018-09-14T03:14:17.833Z,85.08
2018-09-14T03:16:52.348Z,85.50
2018-09-14T03:19:26.973Z,85.35
2018-09-14T03:22:01.461Z,85.85
2018-09-14T03:24:35.927Z,85.98
2018-09-14T03:27:10.456Z,86.06
2018-09-14T03:29:44.956Z,85.35
2018-09-14T03:32:19.338Z,85.35
2018-09-14T03:34:54.071Z,85.44
2018-09-14T03:37:28.524Z,86.68
2018-09-14T03:40:23.597Z,87.00
2018-09-14T03:42:58.218Z,86.24
2018-09-14T03:45:32.703Z,87.06
2018-09-14T03:48:07.776Z,86.62
2018-09-14T03:50:42.301Z,86.45
2018-09-14T03:53:16.769Z,86.24
2018-09-14T03:55:51.385Z,84.89
2018-09-14T03:58:26.040Z,84.67
2018-09-14T04:01:00.596Z,84.28
2018-09-14T04:03:34.909Z,84.38
2018-09-14T04:06:09.188Z,83.90
2018-09-14T04:08:43.624Z,84.85
2018-09-14T04:11:17.935Z,85.38
2018-09-14T04:13:52.254Z,85.33
2018-09-14T04:16:26.548Z,85.87
2018-09-14T04:19:03.577Z,85.88
2018-09-14T04:21:38.388Z,85.65
2018-09-14T04:24:12.894Z,85.90
2018-09-14T04:26:47.153Z,85.95
2018-09-14T04:29:21.523Z,85.84
2018-09-14T04:31:56.051Z,85.82
2018-09-14T04:34:30.561Z,85.43
2018-09-14T04:37:05.203Z,85.15
2018-09-14T04:39:39.935Z,85.17
2018-09-14T04:42:14.711Z,84.48
2018-09-14T04:44:49.132Z,85.09
2018-09-14T04:47:23.515Z,85.44
2018-09-14T04:49:58.099Z,86.03
2018-09-14T04:52:33.100Z,86.08
2018-09-14T04:55:07.794Z,85.55
2018-09-14T04:57:42.432Z,85.76
2018-09-14T05:00:17.258Z,86.08
2018-09-14T05:02:52.063Z,86.72
2018-09-14T05:05:26.493Z,85.60
2018-09-14T05:08:00.998Z,85.27
2018-09-14T05:10:35.721Z,86.34
2018-09-14T05:13:10.875Z,86.12
2018-09-14T05:15:45.416Z,85.00
2018-09-14T05:18:19.940Z,85.06
2018-09-14T05:20:54.467Z,85.85
2018-09-14T05:23:29.045Z,85.02
2018-09-14T05:26:03.776Z,85.09
2018-09-14T05:28:38.445Z,85.29
2018-09-14T05:31:12.989Z,84.08
2018-09-14T05:33:47.384Z,84.66
2018-09-14T05:36:21.722Z,83.81
2018-09-14T05:38:56.190Z,84.19
2018-09-14T05:41:30.649Z,84.96
2018-09-14T05:44:06.006Z,84.80
2018-09-14T05:46:40.712Z,83.87
2018-09-14T05:49:15.141Z,84.40
2018-09-14T05:51:49.840Z,84.66
2018-09-14T05:54:24.291Z,84.68
2018-09-14T05:56:59.328Z,84.52
2018-09-14T05:59:33.729Z,84.80
2018-09-14T06:02:08.920Z,85.40
2018-09-14T06:04:43.369Z,84.82
2018-09-14T06:07:18.080Z,84.17
2018-09-14T06:09:52.495Z,84.40
2018-09-14T06:12:27.136Z,84.42
2018-09-14T06:15:01.893Z,84.26
2018-09-14T06:17:36.711Z,83.46
2018-09-14T06:20:11.036Z,84.18
2018-09-14T06:22:45.729Z,83.69
2018-09-14T06:25:20.472Z,84.24
2018-09-14T06:27:55.109Z,84.72
2018-09-14T06:30:29.571Z,84.56
2018-09-14T06:33:04.173Z,84.48
2018-09-14T06:35:38.668Z,84.47
2018-09-14T06:38:12.992Z,85.04
2018-09-14T06:40:47.584Z,85.10
2018-09-14T06:43:22.524Z,84.77
2018-09-14T06:45:57.004Z,84.62
2018-09-14T06:48:31.580Z,84.58
2018-09-14T06:51:06.272Z,84.03
2018-09-14T06:53:40.665Z,83.66
2018-09-14T06:56:15.755Z,83.38
2018-09-14T06:58:50.337Z,83.61
2018-09-14T07:01:24.756Z,84.10
2018-09-14T07:03:59.565Z,83.93
2018-09-14T07:06:34.348Z,83.79
2018-09-14T07:09:11.116Z,84.65
2018-09-14T07:11:46.054Z,83.92
2018-09-14T07:14:21.682Z,84.38
2018-09-14T07:16:57.174Z,84.13
2018-09-14T07:19:38.285Z,84.04
2018-09-14T07:22:16.554Z,85.01
2018-09-14T07:24:51.405Z,84.22
2018-09-14T07:27:25.868Z,84.35
2018-09-14T07:30:00.312Z,84.66
2018-09-14T07:32:34.976Z,83.86
2018-09-14T07:35:09.605Z,83.86
2018-09-14T07:37:43.928Z,84.17
2018-09-14T07:40:25.868Z,84.46
2018-09-14T07:43:00.612Z,84.04
2018-09-14T07:45:35.009Z,84.53
2018-09-14T07:48:10.161Z,84.09
2018-09-14T07:50:44.859Z,83.35
2018-09-14T07:53:19.595Z,83.60
2018-09-14T07:55:54.595Z,83.63
2018-09-14T07:58:31.794Z,83.99
2018-09-14T08:01:07.104Z,83.87
2018-09-14T08:03:42.010Z,83.32
2018-09-14T08:06:16.902Z,83.52
2018-09-14T08:08:51.881Z,83.23
2018-09-14T08:11:26.852Z,82.69
2018-09-14T08:14:03.231Z,82.72
2018-09-14T08:16:39.653Z,81.52
2018-09-14T08:19:14.799Z,81.62
2018-09-14T08:21:49.603Z,79.91
2018-09-14T08:24:27.728Z,80.64
2018-09-14T08:27:03.061Z,80.55
2018-09-14T08:29:38.908Z,80.93
2018-09-14T08:32:13.998Z,80.73
2018-09-14T08:34:48.776Z,80.08
2018-09-14T08:37:23.197Z,79.04
2018-09-14T08:39:57.679Z,79.20
2018-09-14T08:42:32.830Z,78.12
2018-09-14T08:45:07.364Z,77.71
2018-09-14T08:47:42.514Z,77.80
2018-09-14T08:50:17.191Z,75.35
2018-09-14T08:52:51.993Z,75.81
2018-09-14T08:55:26.284Z,76.29
2018-09-14T08:58:00.942Z,75.57
2018-09-14T09:00:41.464Z,75.18
2018-09-14T09:03:16.060Z,72.81
2018-09-14T09:05:50.562Z,73.67
2018-09-14T09:08:24.992Z,74.11
2018-09-14T09:10:59.537Z,74.77
2018-09-14T09:13:34.101Z,75.15
2018-09-14T09:16:10.673Z,71.26
2018-09-14T09:18:45.237Z,71.17
2018-09-14T09:21:19.893Z,71.34
2018-09-14T09:23:54.425Z,70.62
2018-09-14T09:26:29.868Z,71.24
2018-09-14T09:29:05.180Z,72.74
2018-09-14T09:31:39.661Z,72.91
2018-09-14T09:34:14.090Z,71.39
2018-09-14T09:36:48.721Z,71.94
2018-09-14T09:39:23.044Z,72.05
2018-09-14T09:41:58.620Z,70.90
2018-09-14T09:44:32.887Z,69.26
2018-09-14T09:47:07.447Z,73.27
2018-09-14T09:49:42.109Z,69.88
2018-09-14T09:52:16.786Z,71.19
2018-09-14T09:54:51.299Z,70.46
2018-09-14T09:57:25.733Z,68.83
2018-09-14T10:00:00.987Z,69.21
2018-09-14T10:02:38.939Z,69.44
2018-09-14T10:05:19.036Z,68.51
2018-09-14T10:07:53.583Z,65.44
2018-09-14T10:10:27.908Z,64.09
2018-09-14T10:13:02.671Z,66.61
2018-09-14T10:15:37.556Z,67.71
2018-09-14T10:18:11.907Z,68.88
2018-09-14T10:20:46.747Z,62.08
2018-09-14T10:23:21.779Z,63.05
2018-09-14T10:25:56.608Z,63.64
2018-09-14T10:28:30.967Z,62.86
2018-09-14T10:31:06.072Z,60.81
2018-09-14T10:33:40.414Z,59.06
2018-09-14T10:36:14.771Z,57.95
2018-09-14T10:38:49.667Z,60.94
2018-09-14T10:41:24.565Z,59.49
2018-09-14T10:43:59.364Z,65.25
2018-09-14T10:46:34.163Z,64.80
2018-09-14T10:49:08.654Z,65.15
2018-09-14T10:51:43.288Z,62.93
2018-09-14T10:54:17.688Z,57.89
2018-09-14T10:56:52.114Z,59.18
2018-09-14T10:59:26.759Z,58.69
2018-09-14T11:02:01.799Z,61.77
2018-09-14T11:04:36.605Z,63.34
2018-09-14T11:07:11.631Z,61.25
2018-09-14T11:09:46.376Z,60.88
2018-09-14T11:12:21.588Z,63.37
2018-09-14T11:14:55.915Z,64.11
2018-09-14T11:17:30.527Z,63.95
2018-09-14T11:20:05.208Z,64.93
2018-09-14T11:22:39.921Z,64.98
2018-09-14T11:25:15.228Z,62.08
2018-09-14T11:27:49.937Z,62.31
2018-09-14T11:30:24.577Z,61.56
2018-09-14T11:32:59.412Z,63.62
2018-09-14T11:35:34.339Z,64.11
2018-09-14T11:38:09.005Z,60.67
2018-09-14T11:40:43.609Z,60.90
2018-09-14T11:43:18.175Z,63.37
2018-09-14T11:45:52.700Z,60.93
2018-09-14T11:48:27.485Z,61.26
2018-09-14T11:51:01.956Z,62.79
2018-09-14T11:53:36.476Z,65.90
2018-09-14T11:56:11.684Z,61.86
2018-09-14T11:58:45.994Z,63.21
2018-09-14T12:01:20.523Z,61.99
2018-09-14T12:03:55.563Z,63.07
2018-09-14T12:06:30.371Z,58.50
2018-09-14T12:09:07.400Z,58.23
2018-09-14T12:11:42.364Z,59.52
2018-09-14T12:14:16.903Z,57.21
2018-09-14T12:16:51.364Z,57.00
2018-09-14T12:19:26.360Z,54.18
2018-09-14T12:22:01.134Z,55.42
2018-09-14T12:24:35.576Z,53.87
2018-09-14T12:27:10.237Z,49.77
2018-09-14T12:29:44.652Z,50.05
2018-09-14T12:32:19.841Z,54.87
2018-09-14T12:34:54.591Z,53.95
2018-09-14T12:37:28.944Z,57.33
2018-09-14T12:40:04.452Z,59.43
2018-09-14T12:42:40.088Z,61.86
2018-09-14T12:45:14.553Z,62.31
2018-09-14T12:47:48.859Z,64.65
2018-09-14T12:50:23.276Z,62.38
2018-09-14T12:52:57.560Z,61.21
2018-09-14T12:55:32.384Z,60.34
2018-09-14T12:58:07.384Z,62.95
2018-09-14T13:00:42.672Z,64.64
2018-09-14T13:03:17.039Z,62.87
2018-09-14T13:05:51.711Z,60.25
2018-09-14T13:08:26.227Z,58.85
2018-09-14T13:11:00.761Z,58.90
2018-09-14T13:13:35.316Z,59.21
2018-09-14T13:16:10.452Z,60.79
2018-09-14T13:18:45.095Z,62.50
2018-09-14T13:21:19.624Z,63.73
2018-09-14T13:23:54.992Z,61.38
2018-09-14T13:26:29.643Z,60.54
2018-09-14T13:29:04.056Z,59.54
2018-09-14T13:31:39.075Z,61.67
2018-09-14T13:34:13.634Z,59.89
2018-09-14T13:36:48.597Z,60.53
2018-09-14T13:39:23.761Z,62.15
2018-09-14T13:41:58.529Z,60.40
2018-09-14T13:44:33.885Z,59.67
2018-09-14T13:47:08.900Z,61.03
2018-09-14T13:49:43.344Z,61.77
2018-09-14T13:52:18.175Z,59.87
2018-09-14T13:54:52.610Z,59.75
2018-09-14T13:57:27.092Z,56.15
2018-09-14T14:00:02.741Z,58.00
2018-09-14T14:02:37.415Z,57.71
2018-09-14T14:05:12.735Z,58.42
2018-09-14T14:07:47.112Z,58.72
2018-09-14T14:10:22.326Z,57.78
2018-09-14T14:12:57.032Z,56.98
2018-09-14T14:15:31.631Z,60.62
2018-09-14T14:18:06.220Z,58.58
2018-09-14T14:20:41.006Z,56.69
2018-09-14T14:23:17.842Z,60.71
2018-09-14T14:25:53.087Z,61.38
2018-09-14T14:28:28.093Z,61.04
2018-09-14T14:31:03.700Z,61.35
2018-09-14T14:33:38.185Z,60.53
2018-09-14T14:36:12.892Z,61.63
2018-09-14T14:38:47.517Z,60.38
2018-09-14T14:41:22.425Z,57.95
2018-09-14T14:43:57.254Z,59.39
2018-09-14T14:46:31.536Z,53.16
2018-09-14T14:49:06.257Z,55.43
2018-09-14T14:51:40.818Z,55.66
2018-09-14T14:54:15.440Z,56.43
2018-09-14T14:56:50.016Z,60.46
2018-09-14T14:59:24.944Z,60.98
2018-09-14T15:01:59.662Z,56.89
2018-09-14T15:04:34.620Z,58.42
2018-09-14T15:07:09.436Z,58.30
2018-09-14T15:09:44.382Z,56.08
2018-09-14T15:12:18.847Z,57.60
2018-09-14T15:14:53.415Z,56.50
2018-09-14T15:17:28.008Z,57.31
2018-09-14T15:20:02.661Z,58.43
2018-09-14T15:22:37.868Z,59.56
2018-09-14T15:25:12.192Z,61.48
2018-09-14T15:27:46.678Z,61.61
2018-09-14T15:30:21.928Z,62.81
2018-09-14T15:32:56.770Z,63.20
2018-09-14T15:35:31.273Z,60.90
2018-09-14T15:38:05.927Z,60.51
2018-09-14T15:40:40.412Z,57.65
2018-09-14T15:43:14.791Z,56.49
2018-09-14T15:45:49.639Z,59.21
2018-09-14T15:48:24.045Z,58.42
2018-09-14T15:50:58.391Z,59.42
2018-09-14T15:53:33.671Z,58.12
2018-09-14T15:56:08.500Z,60.87
2018-09-14T15:58:43.214Z,59.26
2018-09-14T16:01:17.753Z,58.52
2018-09-14T16:03:52.430Z,59.88
2018-09-14T16:06:27.177Z,60.35
2018-09-14T16:09:02.292Z,61.03
2018-09-14T16:11:37.803Z,62.81
2018-09-14T16:14:12.255Z,60.64
2018-09-14T16:16:46.571Z,61.89
2018-09-14T16:19:21.131Z,63.04
2018-09-14T16:21:55.607Z,64.24
2018-09-14T16:24:30.072Z,64.80
2018-09-14T16:27:04.758Z,66.00
2018-09-14T16:29:39.244Z,67.10
2018-09-14T16:32:14.027Z,67.70
2018-09-14T16:34:48.333Z,69.84
2018-09-14T16:37:22.635Z,69.16
2018-09-14T16:39:57.287Z,68.26
2018-09-14T16:42:31.813Z,69.39
2018-09-14T16:45:07.019Z,71.30
2018-09-14T16:47:41.330Z,71.72
2018-09-14T16:50:16.360Z,73.10
2018-09-14T16:52:51.258Z,71.84
2018-09-14T16:55:25.739Z,71.50
2018-09-14T16:58:00.592Z,71.42
2018-09-14T17:00:35.199Z,72.63
2018-09-14T17:03:10.152Z,74.76
2018-09-14T17:05:44.571Z,75.00
2018-09-14T17:08:18.955Z,74.17
2018-09-14T17:10:53.542Z,75.19
2018-09-14T17:13:27.965Z,75.23
2018-09-14T17:16:03.439Z,75.97
2018-09-14T17:18:39.361Z,76.96
2018-09-14T17:21:14.532Z,76.37
2018-09-14T17:23:49.732Z,76.72
2018-09-14T17:26:24.132Z,77.45
2018-09-14T17:28:58.594Z,77.50
2018-09-14T17:31:33.599Z,78.06
2018-09-14T17:34:08.116Z,77.66
2018-09-14T17:36:42.584Z,76.84
2018-09-14T17:39:16.957Z,77.00
2018-09-14T17:41:51.380Z,78.05
2018-09-14T17:44:26.071Z,77.92
2018-09-14T17:47:00.699Z,77.54
2018-09-14T17:49:35.040Z,77.47
2018-09-14T17:52:09.960Z,78.05
2018-09-14T17:54:44.644Z,78.59
2018-09-14T17:57:19.308Z,78.80
2018-09-14T17:59:54.044Z,78.80
2018-09-14T18:02:28.487Z,79.01
2018-09-14T18:05:03.387Z,79.92
2018-09-14T18:07:38.471Z,79.60
2018-09-14T18:10:13.087Z,79.60
2018-09-14T18:12:48.059Z,79.66
2018-09-14T18:15:22.886Z,79.80
2018-09-14T18:17:57.360Z,79.51
2018-09-14T18:20:31.972Z,79.73
2018-09-14T18:23:07.243Z,79.83
2018-09-14T18:25:41.979Z,80.40
2018-09-14T18:28:16.868Z,80.50
2018-09-14T18:30:51.655Z,81.67
2018-09-14T18:33:26.349Z,81.75
2018-09-14T18:36:00.601Z,81.74
2018-09-14T18:38:36.916Z,82.00
2018-09-14T18:41:11.619Z,82.16
2018-09-14T18:43:46.148Z,81.93
2018-09-14T18:46:20.707Z,81.09
2018-09-14T18:48:55.248Z,81.65
2018-09-14T18:51:29.556Z,81.47
2018-09-14T18:54:04.507Z,80.99
2018-09-14T18:56:39.248Z,81.27
2018-09-14T18:59:14.688Z,81.30
2018-09-14T19:01:49.112Z,80.87
2018-09-14T19:04:24.040Z,81.25
2018-09-14T19:06:58.864Z,81.21
2018-09-14T19:09:33.351Z,80.54
2018-09-14T19:12:08.061Z,80.78
2018-09-14T19:14:42.720Z,81.40
2018-09-14T19:17:17.184Z,81.24
2018-09-14T19:19:52.074Z,81.54
2018-09-14T19:22:26.602Z,81.52
2018-09-14T19:25:01.445Z,82.12
2018-09-14T19:27:36.363Z,81.92
2018-09-14T19:30:10.696Z,82.32
2018-09-14T19:32:45.051Z,82.99
2018-09-14T19:35:19.667Z,82.35
2018-09-14T19:37:54.276Z,82.58
2018-09-14T19:40:29.071Z,82.86
2018-09-14T19:43:03.643Z,82.29
2018-09-14T19:45:38.530Z,82.79
2018-09-14T19:48:13.043Z,82.40
2018-09-14T19:50:48.867Z,82.87
2018-09-14T19:53:23.363Z,83.04
2018-09-14T19:55:59.273Z,82.91
2018-09-14T19:58:34.143Z,82.27
2018-09-14T20:01:10.851Z,81.60
2018-09-14T20:03:45.300Z,81.79
2018-09-14T20:06:19.972Z,81.33
2018-09-14T20:08:54.831Z,80.91
2018-09-14T20:11:29.572Z,82.44
2018-09-14T20:14:04.703Z,81.40
2018-09-14T20:16:39.683Z,81.91
2018-09-14T20:19:14.215Z,81.29
2018-09-14T20:21:49.383Z,80.92
2018-09-14T20:24:24.220Z,81.25
2018-09-14T20:26:58.603Z,81.53
2018-09-14T20:29:33.180Z,82.15
2018-09-14T20:32:08.035Z,82.72
2018-09-14T20:34:42.848Z,82.79
2018-09-14T20:37:18.334Z,82.03
2018-09-14T20:39:53.552Z,82.01
2018-09-14T20:42:28.059Z,81.58
2018-09-14T20:45:02.829Z,81.23
2018-09-14T20:47:37.199Z,82.02
2018-09-14T20:50:11.817Z,82.00
2018-09-14T20:55:26.072Z,82.05
2018-09-14T20:58:00.619Z,82.29
2018-09-14T21:00:35.164Z,82.17
2018-09-14T21:03:09.765Z,82.12
2018-09-14T21:05:44.260Z,82.05
2018-09-14T21:08:18.665Z,81.66
2018-09-14T21:10:53.496Z,82.26
2018-09-14T21:13:28.240Z,81.97
2018-09-14T21:16:02.652Z,81.25
2018-09-14T21:18:37.346Z,81.27
2018-09-14T21:21:12.379Z,81.73
2018-09-14T21:23:46.699Z,81.28
2018-09-14T21:26:21.719Z,81.17
2018-09-14T21:28:56.291Z,81.78
2018-09-14T21:31:30.909Z,82.13
2018-09-14T21:34:06.121Z,83.22
2018-09-14T21:36:40.408Z,82.70
2018-09-14T21:39:14.708Z,82.43
2018-09-14T21:41:49.476Z,82.96
2018-09-14T21:44:23.921Z,83.16
2018-09-14T21:46:58.271Z,82.34
2018-09-14T21:49:32.807Z,81.86
2018-09-14T21:52:07.488Z,82.29
2018-09-14T21:54:42.032Z,82.34
2018-09-14T21:57:16.340Z,82.80
2018-09-14T21:59:50.976Z,82.43
2018-09-14T22:02:25.916Z,82.51
2018-09-14T22:05:00.840Z,82.33
2018-09-14T22:07:35.171Z,82.43
2018-09-14T22:10:10.149Z,82.18
2018-09-14T22:12:44.527Z,82.08
2018-09-14T22:15:18.864Z,82.24
2018-09-14T22:17:53.492Z,82.81
2018-09-14T22:20:28.645Z,82.90
2018-09-14T22:23:03.404Z,82.89
2018-09-14T22:25:38.276Z,82.51
2018-09-14T22:28:12.884Z,82.39
2018-09-14T22:30:47.432Z,82.28
2018-09-14T22:33:21.759Z,82.02
2018-09-14T22:35:56.394Z,82.31
2018-09-14T22:38:31.293Z,83.14
2018-09-14T22:41:05.642Z,83.79
2018-09-14T22:43:39.952Z,83.30
2018-09-14T22:46:15.116Z,83.22
2018-09-14T22:48:49.812Z,83.47
2018-09-14T22:51:24.397Z,83.28
2018-09-14T22:53:59.072Z,83.90
2018-09-14T22:56:33.504Z,84.10
2018-09-14T22:59:08.789Z,83.98
2018-09-14T23:01:43.435Z,82.97
2018-09-14T23:04:17.907Z,82.85
2018-09-14T23:06:52.640Z,82.70
2018-09-14T23:09:27.145Z,83.49
2018-09-14T23:12:02.775Z,82.89
2018-09-14T23:14:37.847Z,83.04
2018-09-14T23:17:13.416Z,83.12
2018-09-14T23:19:48.120Z,83.81
2018-09-14T23:22:22.796Z,83.94
2018-09-14T23:24:57.539Z,84.89
2018-09-14T23:27:31.961Z,84.62
2018-09-14T23:30:07.591Z,84.96
2018-09-14T23:32:42.391Z,84.23
2018-09-14T23:35:17.335Z,84.17
2018-09-14T23:37:52.100Z,84.95
2018-09-14T23:40:26.510Z,85.59
2018-09-14T23:43:00.933Z,84.71
2018-09-14T23:45:35.871Z,85.16
2018-09-14T23:48:10.536Z,85.59
2018-09-14T23:50:45.456Z,85.41
2018-09-14T23:53:19.801Z,85.94
2018-09-14T23:55:54.378Z,85.71
2018-09-14T23:58:28.925Z,85.16
